createdAt,value
2023-02-06T00:01:51.100Z,45.70
2023-02-06T00:04:18.000Z,45.70
2023-02-06T00:06:44.863Z,45.70
2023-02-06T00:09:11.608Z,45.70
2023-02-06T00:11:38.631Z,45.80
2023-02-06T00:14:06.971Z,45.80
2023-02-06T00:16:34.850Z,45.80
2023-02-06T00:19:02.149Z,45.90
2023-02-06T00:21:30.230Z,45.90
2023-02-06T00:24:00.044Z,46.00
2023-02-06T00:26:27.027Z,46.00
2023-02-06T00:28:54.284Z,46.00
2023-02-06T00:31:21.081Z,46.00
2023-02-06T00:33:47.788Z,46.00
2023-02-06T00:36:14.586Z,46.00
2023-02-06T00:38:41.352Z,45.90
2023-02-06T00:41:08.354Z,45.90
2023-02-06T00:43:35.129Z,45.90
2023-02-06T00:46:01.798Z,45.90
2023-02-06T00:48:28.586Z,45.90
2023-02-06T00:50:56.086Z,45.90
2023-02-06T00:53:22.955Z,45.90
2023-02-06T00:55:49.560Z,45.90
2023-02-06T00:58:16.278Z,45.90
2023-02-06T01:00:43.020Z,45.90
2023-02-06T01:03:09.875Z,45.90
2023-02-06T01:05:37.253Z,45.90
2023-02-06T01:08:04.605Z,45.90
2023-02-06T01:10:31.713Z,45.80
2023-02-06T01:12:58.515Z,45.80
2023-02-06T01:15:25.121Z,45.90
2023-02-06T01:17:52.065Z,45.80
2023-02-06T01:20:18.997Z,45.90
2023-02-06T01:22:45.610Z,45.90
2023-02-06T01:25:12.406Z,45.90
2023-02-06T01:27:39.407Z,45.90
2023-02-06T01:30:07.843Z,45.80
2023-02-06T01:32:39.067Z,45.80
2023-02-06T01:35:07.406Z,45.80
2023-02-06T01:37:35.004Z,45.90
2023-02-06T01:40:01.784Z,46.00
2023-02-06T01:42:28.495Z,46.00
2023-02-06T01:45:26.255Z,46.10
2023-02-06T01:47:59.052Z,46.10
2023-02-06T01:50:25.897Z,46.10
2023-02-06T01:52:52.785Z,46.10
2023-02-06T01:55:19.836Z,46.10
2023-02-06T01:57:46.579Z,46.10
2023-02-06T02:00:13.629Z,46.10
2023-02-06T02:02:44.858Z,46.10
2023-02-06T02:05:12.390Z,46.10
2023-02-06T02:07:47.015Z,46.10
2023-02-06T02:10:13.846Z,46.10
2023-02-06T02:12:40.578Z,46.10
2023-02-06T02:15:07.661Z,46.10
2023-02-06T02:17:43.152Z,46.10
2023-02-06T02:20:24.099Z,46.10
2023-02-06T02:23:28.784Z,46.10
2023-02-06T02:26:18.406Z,46.10
2023-02-06T02:29:16.280Z,46.10
2023-02-06T02:31:50.585Z,46.10
2023-02-06T02:34:52.664Z,46.10
2023-02-06T02:37:22.446Z,46.10
2023-02-06T02:40:07.989Z,46.10
2023-02-06T02:42:49.297Z,46.10
2023-02-06T02:45:23.984Z,46.10
2023-02-06T02:48:11.400Z,46.10
2023-02-06T02:50:39.062Z,46.10
2023-02-06T02:53:06.814Z,46.10
2023-02-06T02:55:33.747Z,46.10
2023-02-06T02:58:06.455Z,46.10
2023-02-06T03:00:44.703Z,46.10
2023-02-06T03:03:14.259Z,46.10
2023-02-06T03:05:58.502Z,46.10
2023-02-06T03:08:38.109Z,46.10
2023-02-06T03:11:14.823Z,46.10
2023-02-06T03:13:53.713Z,46.10
2023-02-06T03:16:38.889Z,46.10
2023-02-06T03:19:19.051Z,46.10
2023-02-06T03:21:47.435Z,46.10
2023-02-06T03:24:26.344Z,46.10
2023-02-06T03:26:58.259Z,46.10
2023-02-06T03:29:25.810Z,46.10
2023-02-06T03:32:00.456Z,46.10
2023-02-06T03:34:33.379Z,46.10
2023-02-06T03:37:00.419Z,46.10
2023-02-06T03:39:27.305Z,46.10
2023-02-06T03:41:59.345Z,46.10
2023-02-06T03:44:30.430Z,46.10
2023-02-06T03:46:59.558Z,46.10
2023-02-06T03:49:29.380Z,46.10
2023-02-06T03:52:01.062Z,46.10
2023-02-06T03:54:28.426Z,46.10
2023-02-06T03:56:58.114Z,46.10
2023-02-06T03:59:25.455Z,46.10
2023-02-06T04:01:55.551Z,46.10
2023-02-06T04:04:29.223Z,46.10
2023-02-06T04:07:00.253Z,46.20
2023-02-06T04:09:27.114Z,46.20
2023-02-06T04:11:53.930Z,46.20
2023-02-06T04:14:20.577Z,46.10
2023-02-06T04:16:47.380Z,46.10
2023-02-06T04:19:14.117Z,46.10
2023-02-06T04:21:40.887Z,46.10
2023-02-06T04:24:07.782Z,46.10
2023-02-06T04:26:34.443Z,46.10
2023-02-06T04:29:01.140Z,46.10
2023-02-06T04:31:27.800Z,46.10
2023-02-06T04:33:54.494Z,46.20
2023-02-06T04:36:21.271Z,46.10
2023-02-06T04:38:47.887Z,46.10
2023-02-06T04:41:14.839Z,46.10
2023-02-06T04:43:41.455Z,46.10
2023-02-06T04:46:08.185Z,46.10
2023-02-06T04:48:36.132Z,46.10
2023-02-06T04:51:03.018Z,46.10
2023-02-06T04:53:29.738Z,46.10
2023-02-06T04:56:08.157Z,46.10
2023-02-06T04:58:35.209Z,46.10
2023-02-06T05:01:02.282Z,46.10
2023-02-06T05:03:29.660Z,46.10
2023-02-06T05:05:59.242Z,46.00
2023-02-06T05:08:26.011Z,46.00
2023-02-06T05:10:52.835Z,46.00
2023-02-06T05:13:19.847Z,46.00
2023-02-06T05:15:47.001Z,46.00
2023-02-06T05:18:15.373Z,46.00
2023-02-06T05:20:43.145Z,46.00
2023-02-06T05:23:10.394Z,46.00
2023-02-06T05:25:38.045Z,46.00
2023-02-06T05:28:06.673Z,46.00
2023-02-06T05:30:34.405Z,46.00
2023-02-06T05:33:01.376Z,45.90
2023-02-06T05:35:28.950Z,46.00
2023-02-06T05:37:55.794Z,45.90
2023-02-06T05:40:22.584Z,45.90
2023-02-06T05:42:49.392Z,45.90
2023-02-06T05:45:16.044Z,45.90
2023-02-06T05:47:42.792Z,45.90
2023-02-06T05:50:09.661Z,45.90
2023-02-06T05:52:36.429Z,45.90
2023-02-06T05:55:03.153Z,45.90
2023-02-06T05:57:29.860Z,45.90
2023-02-06T05:59:56.533Z,45.90
2023-02-06T06:02:23.158Z,45.90
2023-02-06T06:04:49.883Z,45.90
2023-02-06T06:07:17.061Z,45.90
2023-02-06T06:09:43.877Z,45.90
2023-02-06T06:12:10.535Z,45.90
2023-02-06T06:14:37.217Z,45.90
2023-02-06T06:17:03.894Z,45.90
2023-02-06T06:19:30.702Z,45.90
2023-02-06T06:21:58.424Z,45.90
2023-02-06T06:24:25.830Z,45.90
2023-02-06T06:26:52.804Z,45.90
2023-02-06T06:29:19.618Z,45.90
2023-02-06T06:31:46.373Z,45.90
2023-02-06T06:34:13.078Z,45.90
2023-02-06T06:36:39.792Z,45.90
2023-02-06T06:39:06.556Z,45.90
2023-02-06T06:41:33.206Z,45.90
2023-02-06T06:44:00.383Z,45.90
2023-02-06T06:46:27.059Z,46.00
2023-02-06T06:48:53.763Z,46.00
2023-02-06T06:51:20.923Z,47.50
2023-02-06T06:53:47.682Z,48.80
2023-02-06T06:56:15.572Z,49.00
2023-02-06T06:58:42.580Z,50.00
2023-02-06T07:01:09.449Z,49.90
2023-02-06T07:03:36.677Z,49.90
2023-02-06T07:06:04.052Z,49.60
2023-02-06T07:08:31.057Z,49.70
2023-02-06T07:10:58.304Z,49.50
2023-02-06T07:13:24.966Z,49.40
2023-02-06T07:15:51.805Z,49.30
2023-02-06T07:18:18.593Z,49.00
2023-02-06T07:20:45.275Z,48.90
2023-02-06T07:23:11.901Z,48.60
2023-02-06T07:25:38.758Z,48.50
2023-02-06T07:28:05.622Z,48.40
2023-02-06T07:30:32.431Z,48.30
2023-02-06T07:32:59.201Z,48.20
2023-02-06T07:35:26.074Z,48.00
2023-02-06T07:37:53.813Z,47.90
2023-02-06T07:40:20.859Z,47.90
2023-02-06T07:42:47.491Z,47.70
2023-02-06T07:45:14.448Z,47.70
2023-02-06T07:47:42.371Z,47.60
2023-02-06T07:50:09.591Z,47.50
2023-02-06T07:52:36.297Z,47.50
2023-02-06T07:55:03.222Z,47.40
2023-02-06T07:57:29.876Z,47.30
2023-02-06T07:59:56.556Z,47.30
2023-02-06T08:02:23.209Z,47.30
2023-02-06T08:04:49.871Z,47.20
2023-02-06T08:07:17.862Z,47.20
2023-02-06T08:09:44.592Z,47.10
2023-02-06T08:12:12.067Z,47.10
2023-02-06T08:14:38.943Z,47.00
2023-02-06T08:17:05.562Z,47.00
2023-02-06T08:19:32.251Z,47.00
2023-02-06T08:21:58.877Z,47.00
2023-02-06T08:24:25.691Z,47.00
2023-02-06T08:26:52.441Z,47.00
2023-02-06T08:29:19.368Z,46.90
2023-02-06T08:31:46.381Z,46.90
2023-02-06T08:34:15.457Z,46.80
2023-02-06T08:36:43.557Z,46.80
2023-02-06T08:39:14.165Z,46.70
2023-02-06T08:41:43.463Z,46.60
2023-02-06T08:44:16.106Z,46.50
2023-02-06T08:46:44.778Z,46.40
2023-02-06T08:49:19.985Z,46.30
2023-02-06T08:51:47.495Z,46.30
2023-02-06T08:54:17.629Z,46.20
2023-02-06T08:56:44.795Z,46.10
2023-02-06T08:59:13.472Z,46.00
2023-02-06T09:01:40.842Z,45.80
2023-02-06T09:04:09.993Z,45.50
2023-02-06T09:06:39.366Z,45.30
2023-02-06T09:09:06.934Z,45.10
2023-02-06T09:11:34.287Z,44.90
2023-02-06T09:14:03.306Z,44.80
2023-02-06T09:16:33.156Z,44.90
2023-02-06T09:19:01.511Z,45.00
2023-02-06T09:21:31.040Z,45.00
2023-02-06T09:24:00.827Z,44.90
2023-02-06T09:26:30.760Z,44.50
2023-02-06T09:28:59.747Z,44.00
2023-02-06T09:31:30.681Z,43.90
2023-02-06T09:34:00.198Z,44.10
2023-02-06T09:36:27.663Z,44.60
2023-02-06T09:38:57.241Z,44.90
2023-02-06T09:41:26.640Z,45.10
2023-02-06T09:44:16.775Z,45.10
2023-02-06T09:46:48.651Z,45.20
2023-02-06T09:49:21.086Z,45.20
2023-02-06T09:52:09.751Z,45.10
2023-02-06T09:54:46.375Z,44.90
2023-02-06T09:57:31.247Z,44.80
2023-02-06T10:00:03.026Z,44.70
2023-02-06T10:02:40.746Z,44.60
2023-02-06T10:05:32.156Z,44.60
2023-02-06T10:08:31.665Z,44.50
2023-02-06T10:11:10.212Z,45.00
2023-02-06T10:13:45.322Z,45.20
2023-02-06T10:16:34.460Z,45.30
2023-02-06T10:19:07.045Z,45.20
2023-02-06T10:21:41.797Z,45.00
2023-02-06T10:26:53.713Z,44.80
2023-02-06T10:29:32.639Z,44.80
2023-02-06T10:32:24.263Z,44.70
2023-02-06T10:35:05.923Z,44.70
2023-02-06T10:37:37.936Z,44.80
2023-02-06T10:40:13.721Z,44.80
2023-02-06T10:42:56.442Z,44.90
2023-02-06T10:45:35.327Z,44.90
2023-02-06T10:48:29.325Z,44.80
2023-02-06T10:51:19.757Z,44.80
2023-02-06T10:53:57.314Z,44.80
2023-02-06T10:56:28.613Z,44.80
2023-02-06T10:59:28.146Z,44.80
2023-02-06T11:02:09.962Z,44.90
2023-02-06T11:04:45.368Z,44.70
2023-02-06T11:07:25.071Z,44.70
2023-02-06T11:09:52.775Z,44.80
2023-02-06T11:12:35.577Z,44.80
2023-02-06T11:15:09.149Z,44.80
2023-02-06T11:17:36.162Z,44.80
2023-02-06T11:20:17.474Z,44.70
2023-02-06T11:22:52.330Z,44.70
2023-02-06T11:25:31.849Z,44.70
2023-02-06T11:28:00.167Z,44.70
2023-02-06T11:30:39.863Z,44.70
2023-02-06T11:33:19.456Z,44.70
2023-02-06T11:35:59.083Z,44.70
2023-02-06T11:38:29.483Z,44.60
2023-02-06T11:41:02.385Z,44.50
2023-02-06T11:43:40.956Z,44.40
2023-02-06T11:46:27.554Z,44.40
2023-02-06T11:48:58.427Z,44.20
2023-02-06T11:51:25.306Z,44.10
2023-02-06T11:54:03.361Z,43.90
2023-02-06T11:56:31.614Z,43.80
2023-02-06T11:59:21.405Z,43.70
2023-02-06T12:01:48.951Z,43.70
2023-02-06T12:04:34.104Z,43.60
2023-02-06T12:07:30.533Z,43.50
2023-02-06T12:09:57.233Z,43.30
2023-02-06T12:12:33.110Z,43.00
2023-02-06T12:15:45.590Z,43.10
2023-02-06T12:18:20.519Z,43.20
2023-02-06T12:20:56.223Z,43.10
2023-02-06T12:23:46.363Z,43.10
2023-02-06T12:26:20.463Z,43.20
2023-02-06T12:28:59.500Z,43.20
2023-02-06T12:31:38.012Z,43.40
2023-02-06T12:34:11.519Z,43.20
2023-02-06T12:36:54.763Z,43.20
2023-02-06T12:39:22.970Z,42.50
2023-02-06T12:42:04.199Z,41.90
2023-02-06T12:44:37.041Z,41.80
2023-02-06T12:47:29.132Z,41.40
2023-02-06T12:50:02.770Z,41.50
2023-02-06T12:52:35.564Z,40.60
2023-02-06T12:55:18.649Z,41.00
2023-02-06T12:57:45.826Z,40.90
2023-02-06T13:00:18.386Z,40.70
2023-02-06T13:03:22.449Z,40.50
2023-02-06T13:05:52.977Z,40.50
2023-02-06T13:08:28.275Z,40.90
2023-02-06T13:11:05.790Z,40.80
2023-02-06T13:13:37.516Z,40.80
2023-02-06T13:16:05.711Z,40.50
2023-02-06T13:18:41.230Z,40.20
2023-02-06T13:21:32.175Z,40.10
2023-02-06T13:24:02.021Z,40.10
2023-02-06T13:26:47.879Z,40.10
2023-02-06T13:29:41.707Z,40.40
2023-02-06T13:32:15.018Z,40.50
2023-02-06T13:34:44.782Z,41.20
2023-02-06T13:37:33.451Z,41.20
2023-02-06T13:40:20.890Z,41.20
2023-02-06T13:43:18.659Z,41.50
2023-02-06T13:45:55.019Z,41.60
2023-02-06T13:48:54.052Z,41.70
2023-02-06T13:51:32.792Z,41.60
2023-02-06T13:54:33.896Z,41.60
2023-02-06T13:57:37.740Z,41.50
2023-02-06T14:00:24.833Z,41.80
2023-02-06T14:02:55.359Z,41.90
2023-02-06T14:05:42.709Z,41.90
2023-02-06T14:08:30.994Z,42.00
2023-02-06T14:11:04.020Z,41.90
2023-02-06T14:13:49.405Z,41.50
2023-02-06T14:16:49.489Z,41.50
2023-02-06T14:19:27.023Z,40.70
2023-02-06T14:21:59.497Z,40.20
2023-02-06T14:24:44.763Z,40.10
2023-02-06T14:27:14.314Z,41.20
2023-02-06T14:30:06.581Z,41.80
2023-02-06T14:32:33.256Z,42.20
2023-02-06T14:35:40.834Z,42.20
2023-02-06T14:38:40.681Z,42.40
2023-02-06T14:41:07.796Z,42.50
2023-02-06T14:43:39.552Z,42.70
2023-02-06T14:46:12.243Z,42.80
2023-02-06T14:48:53.149Z,42.90
2023-02-06T14:51:38.463Z,42.90
2023-02-06T14:54:25.961Z,43.10
2023-02-06T14:56:57.635Z,43.20
2023-02-06T14:59:24.420Z,43.30
2023-02-06T15:01:53.267Z,43.40
2023-02-06T15:04:28.816Z,43.50
2023-02-06T15:06:59.626Z,43.50
2023-02-06T15:09:33.842Z,43.60
2023-02-06T15:12:04.426Z,43.80
2023-02-06T15:14:35.291Z,43.80
2023-02-06T15:17:02.825Z,44.00
2023-02-06T15:19:35.642Z,44.40
2023-02-06T15:22:08.500Z,44.40
2023-02-06T15:24:59.824Z,44.60
2023-02-06T15:27:35.718Z,44.70
2023-02-06T15:30:17.142Z,44.80
2023-02-06T15:32:49.577Z,44.80
2023-02-06T15:35:36.912Z,44.90
2023-02-06T15:38:13.334Z,44.90
2023-02-06T15:40:44.147Z,45.00
2023-02-06T15:43:16.813Z,45.00
2023-02-06T15:45:45.024Z,45.10
2023-02-06T15:48:13.606Z,45.10
2023-02-06T15:50:40.563Z,45.10
2023-02-06T15:53:48.675Z,45.10
2023-02-06T15:56:34.451Z,45.20
2023-02-06T15:59:03.741Z,45.30
2023-02-06T16:01:37.273Z,45.70
2023-02-06T16:04:12.717Z,45.70
2023-02-06T16:06:39.575Z,45.80
2023-02-06T16:09:08.303Z,46.30
2023-02-06T16:11:50.797Z,46.40
2023-02-06T16:14:21.817Z,46.70
2023-02-06T16:17:18.129Z,47.10
2023-02-06T16:19:55.914Z,46.90
2023-02-06T16:22:31.409Z,46.90
2023-02-06T16:25:30.178Z,46.90
2023-02-06T16:27:57.534Z,46.70
2023-02-06T16:30:33.133Z,46.70
2023-02-06T16:33:09.540Z,47.00
2023-02-06T16:35:36.212Z,46.90
2023-02-06T16:38:02.914Z,46.50
2023-02-06T16:40:29.700Z,46.30
2023-02-06T16:42:56.356Z,46.60
2023-02-06T16:45:26.351Z,47.40
2023-02-06T16:47:54.578Z,47.00
2023-02-06T16:50:21.808Z,46.80
2023-02-06T16:52:57.857Z,46.70
2023-02-06T16:55:26.429Z,46.70
2023-02-06T16:57:58.968Z,46.60
2023-02-06T17:00:30.948Z,46.60
2023-02-06T17:02:57.949Z,46.60
2023-02-06T17:05:26.591Z,46.60
2023-02-06T17:07:54.936Z,46.60
2023-02-06T17:10:24.798Z,47.00
2023-02-06T17:12:51.900Z,47.00
2023-02-06T17:15:19.692Z,46.90
2023-02-06T17:17:46.700Z,46.80
2023-02-06T17:20:37.856Z,46.80
2023-02-06T17:23:05.343Z,46.80
2023-02-06T17:25:32.832Z,46.80
2023-02-06T17:28:00.398Z,46.80
2023-02-06T17:30:27.299Z,46.80
2023-02-06T17:32:54.476Z,46.80
2023-02-06T17:35:21.416Z,46.80
2023-02-06T17:37:49.198Z,46.80
2023-02-06T17:40:28.959Z,46.70
2023-02-06T17:42:56.621Z,46.70
2023-02-06T17:45:23.882Z,46.70
2023-02-06T17:47:51.078Z,46.60
2023-02-06T17:50:20.386Z,46.60
2023-02-06T17:52:47.405Z,46.60
2023-02-06T17:55:14.901Z,46.50
2023-02-06T17:57:42.985Z,46.50
2023-02-06T18:00:15.436Z,46.60
2023-02-06T18:02:42.175Z,46.60
2023-02-06T18:05:09.418Z,46.60
2023-02-06T18:07:38.210Z,46.70
2023-02-06T18:10:05.975Z,46.80
2023-02-06T18:12:32.919Z,46.80
2023-02-06T18:14:59.630Z,46.80
2023-02-06T18:17:26.427Z,46.90
2023-02-06T18:19:53.191Z,46.80
2023-02-06T18:22:21.817Z,46.90
2023-02-06T18:24:49.784Z,46.80
2023-02-06T18:27:18.172Z,46.80
2023-02-06T18:29:50.183Z,46.70
2023-02-06T18:32:19.426Z,46.70
2023-02-06T18:34:47.048Z,46.60
2023-02-06T18:37:13.959Z,46.50
2023-02-06T18:39:40.732Z,46.50
2023-02-06T18:42:26.003Z,46.40
2023-02-06T18:44:52.676Z,46.20
2023-02-06T18:47:19.840Z,46.30
2023-02-06T18:49:46.762Z,46.30
2023-02-06T18:52:14.278Z,46.20
2023-02-06T18:54:41.196Z,46.20
2023-02-06T18:57:08.053Z,46.10
2023-02-06T18:59:35.460Z,46.20
2023-02-06T19:02:02.504Z,46.10
2023-02-06T19:04:29.468Z,46.10
2023-02-06T19:06:56.469Z,46.10
2023-02-06T19:09:23.192Z,46.10
2023-02-06T19:11:50.002Z,46.20
2023-02-06T19:14:18.263Z,46.10
2023-02-06T19:16:47.393Z,46.10
2023-02-06T19:19:14.615Z,46.00
2023-02-06T19:21:41.659Z,45.90
2023-02-06T19:24:11.117Z,45.90
2023-02-06T19:26:37.830Z,45.80
2023-02-06T19:29:04.644Z,45.70
2023-02-06T19:31:32.273Z,45.60
2023-02-06T19:34:02.170Z,45.50
2023-02-06T19:36:29.913Z,45.60
2023-02-06T19:38:58.739Z,45.70
2023-02-06T19:41:28.140Z,45.70
2023-02-06T19:43:56.737Z,45.70
2023-02-06T19:46:26.988Z,45.60
2023-02-06T19:48:55.159Z,45.50
2023-02-06T19:51:28.217Z,45.30
2023-02-06T19:53:56.174Z,45.40
2023-02-06T19:56:25.696Z,45.30
2023-02-06T19:58:57.555Z,45.20
2023-02-06T20:01:24.564Z,45.20
2023-02-06T20:03:51.986Z,45.10
2023-02-06T20:06:19.379Z,45.10
2023-02-06T20:08:46.902Z,45.00
2023-02-06T20:11:16.408Z,45.00
2023-02-06T20:13:44.376Z,45.00
2023-02-06T20:16:29.689Z,45.00
2023-02-06T20:18:56.782Z,44.90
2023-02-06T20:21:33.130Z,44.90
2023-02-06T20:24:03.802Z,44.90
2023-02-06T20:26:33.558Z,44.80
2023-02-06T20:29:00.983Z,44.80
2023-02-06T20:31:28.239Z,44.80
2023-02-06T20:33:55.790Z,44.80
2023-02-06T20:36:24.619Z,44.80
2023-02-06T20:38:57.454Z,44.80
2023-02-06T20:41:28.586Z,44.80
2023-02-06T20:44:00.430Z,44.80
2023-02-06T20:46:29.720Z,44.90
2023-02-06T20:48:59.407Z,45.00
2023-02-06T20:51:27.289Z,45.10
2023-02-06T20:53:54.328Z,45.10
2023-02-06T20:56:22.510Z,44.90
2023-02-06T20:58:51.337Z,44.80
2023-02-06T21:01:23.873Z,44.80
2023-02-06T21:03:52.438Z,44.70
2023-02-06T21:06:19.342Z,44.60
2023-02-06T21:08:47.520Z,44.40
2023-02-06T21:11:14.339Z,44.40
2023-02-06T21:13:41.405Z,44.30
2023-02-06T21:16:11.343Z,44.30
2023-02-06T21:18:40.692Z,44.20
2023-02-06T21:21:13.490Z,44.20
2023-02-06T21:23:41.929Z,44.20
2023-02-06T21:26:10.918Z,44.20
2023-02-06T21:28:39.015Z,44.20
2023-02-06T21:31:12.138Z,44.20
2023-02-06T21:33:38.866Z,44.10
2023-02-06T21:36:07.715Z,44.20
2023-02-06T21:38:40.016Z,44.10
2023-02-06T21:41:15.592Z,44.10
2023-02-06T21:43:42.734Z,44.10
2023-02-06T21:46:10.541Z,44.00
2023-02-06T21:48:37.951Z,44.00
2023-02-06T21:51:16.522Z,44.00
2023-02-06T21:53:44.650Z,44.00
2023-02-06T21:56:30.006Z,43.90
2023-02-06T21:58:57.587Z,44.00
2023-02-06T22:01:28.453Z,43.90
2023-02-06T22:03:56.864Z,43.90
2023-02-06T22:06:23.670Z,43.80
2023-02-06T22:08:51.950Z,43.80
2023-02-06T22:11:19.919Z,43.80
2023-02-06T22:13:47.984Z,43.80
2023-02-06T22:16:21.859Z,43.70
2023-02-06T22:18:49.562Z,43.70
2023-02-06T22:21:19.528Z,43.70
2023-02-06T22:23:48.178Z,43.70
2023-02-06T22:26:17.416Z,43.60
2023-02-06T22:28:44.863Z,43.70
2023-02-06T22:31:18.298Z,43.60
2023-02-06T22:33:45.571Z,43.70
2023-02-06T22:36:15.146Z,43.60
2023-02-06T22:38:44.928Z,43.60
2023-02-06T22:41:17.760Z,43.60
2023-02-06T22:43:45.649Z,43.50
2023-02-06T22:46:25.581Z,43.50
2023-02-06T22:48:52.792Z,43.50
2023-02-06T22:51:20.457Z,43.40
2023-02-06T22:53:47.241Z,43.40
2023-02-06T22:56:32.331Z,43.30
2023-02-06T22:59:11.735Z,43.30
2023-02-06T23:01:43.421Z,43.20
2023-02-06T23:04:16.154Z,43.20
2023-02-06T23:06:43.901Z,43.20
2023-02-06T23:09:32.463Z,43.10
2023-02-06T23:12:00.022Z,43.00
2023-02-06T23:14:28.674Z,43.10
2023-02-06T23:16:55.545Z,43.00
2023-02-06T23:19:22.684Z,43.00
2023-02-06T23:21:51.260Z,43.00
2023-02-06T23:24:18.816Z,42.90
2023-02-06T23:26:47.892Z,42.90
2023-02-06T23:29:17.176Z,42.80
2023-02-06T23:31:45.871Z,42.80
2023-02-06T23:34:13.715Z,42.80
2023-02-06T23:36:40.688Z,42.80
2023-02-06T23:39:07.598Z,42.70
2023-02-06T23:41:34.767Z,42.70
2023-02-06T23:44:04.307Z,43.00
2023-02-06T23:46:32.490Z,43.10
2023-02-06T23:48:59.338Z,43.20
2023-02-06T23:51:26.541Z,43.20
2023-02-06T23:53:53.538Z,43.40
2023-02-06T23:56:29.617Z,43.40
2023-02-06T23:58:58.532Z,43.50
